createdAt,value
2019-04-05T00:03:05.366Z,8.70
2019-04-05T00:07:06.210Z,8.90
2019-04-05T00:11:07.202Z,9.30
2019-04-05T00:15:15.247Z,10.10
2019-04-05T00:19:11.316Z,10.10
2019-04-05T00:23:12.397Z,10.10
2019-04-05T00:27:13.252Z,9.90
2019-04-05T00:31:14.121Z,10.20
2019-04-05T00:35:15.020Z,10.20
2019-04-05T00:39:15.998Z,9.90
2019-04-05T00:43:16.847Z,9.80
2019-04-05T00:47:17.739Z,9.30
2019-04-05T00:51:18.708Z,9.70
2019-04-05T00:55:19.695Z,9.50
2019-04-05T00:59:20.780Z,10.00
2019-04-05T01:03:21.656Z,9.60
2019-04-05T01:07:22.681Z,9.10
2019-04-05T01:11:23.745Z,10.10
2019-04-05T01:15:24.732Z,10.00
2019-04-05T01:19:29.451Z,10.00
2019-04-05T01:23:31.612Z,10.60
2019-04-05T01:27:33.711Z,10.70
2019-04-05T01:31:34.687Z,10.00
2019-04-05T01:35:35.684Z,9.30
2019-04-05T01:39:36.580Z,8.80
2019-04-05T01:43:37.576Z,9.00
2019-04-05T01:47:39.181Z,9.00
2019-04-05T01:51:40.790Z,7.90
2019-04-05T01:55:41.735Z,8.60
2019-04-05T01:59:42.738Z,9.20
2019-04-05T02:03:43.725Z,8.00
2019-04-05T02:07:44.967Z,8.20
2019-04-05T02:11:46.200Z,8.90
2019-04-05T02:15:47.054Z,8.90
2019-04-05T02:19:48.064Z,9.00
2019-04-05T02:23:49.131Z,9.10
2019-04-05T02:27:50.223Z,9.10
2019-04-05T02:31:51.242Z,9.10
2019-04-05T02:35:52.340Z,9.40
2019-04-05T02:39:53.304Z,9.90
2019-04-05T02:43:54.989Z,9.40
2019-04-05T02:47:59.689Z,9.70
2019-04-05T02:52:02.335Z,9.50
2019-04-05T02:56:05.209Z,9.40
2019-04-05T03:00:06.584Z,8.50
2019-04-05T03:04:07.570Z,8.50
2019-04-05T03:08:08.535Z,8.30
2019-04-05T03:12:09.421Z,8.80
2019-04-05T03:16:39.602Z,9.30
2019-04-05T03:20:28.801Z,9.20
2019-04-05T03:24:32.692Z,9.30
2019-04-05T03:28:36.746Z,9.50
2019-04-05T03:32:37.830Z,9.60
2019-04-05T03:36:39.302Z,8.70
2019-04-05T03:40:40.364Z,9.20
2019-04-05T03:44:41.667Z,9.30
2019-04-05T03:48:42.667Z,8.90
2019-04-05T03:52:43.926Z,8.70
2019-04-05T03:56:45.391Z,8.90
2019-04-05T04:00:46.394Z,9.70
2019-04-05T04:04:47.793Z,9.90
2019-04-05T04:08:48.993Z,10.30
2019-04-05T04:12:50.099Z,9.80
2019-04-05T04:16:51.606Z,9.90
2019-04-05T04:20:56.364Z,8.80
2019-04-05T04:24:57.920Z,9.00
2019-04-05T04:28:59.022Z,9.70
2019-04-05T04:33:00.334Z,10.20
2019-04-05T04:37:01.310Z,10.40
2019-04-05T04:41:02.365Z,10.00
2019-04-05T04:45:12.169Z,10.00
2019-04-05T04:49:08.348Z,10.30
2019-04-05T04:53:09.605Z,10.20
2019-04-05T04:57:11.189Z,9.90
2019-04-05T05:01:12.265Z,10.00
2019-04-05T05:05:14.644Z,10.00
2019-04-05T05:09:15.759Z,9.60
2019-04-05T05:13:16.831Z,9.60
2019-04-05T05:17:18.097Z,9.90
2019-04-05T05:21:19.264Z,9.20
2019-04-05T05:25:20.458Z,9.50
2019-04-05T05:29:21.850Z,10.00
2019-04-05T05:33:23.065Z,10.00
2019-04-05T05:37:24.140Z,8.80
2019-04-05T05:41:25.219Z,9.20
2019-04-05T05:45:26.428Z,9.70
2019-04-05T05:49:27.288Z,9.90
2019-04-05T05:53:28.289Z,9.70
2019-04-05T05:57:29.183Z,9.90
2019-04-05T06:01:30.056Z,10.20
2019-04-05T06:05:30.949Z,10.70
2019-04-05T06:09:31.825Z,10.60
2019-04-05T06:13:32.743Z,10.80
2019-04-05T06:17:33.958Z,10.70
2019-04-05T06:21:34.847Z,10.30
2019-04-05T06:25:35.907Z,10.30
2019-04-05T06:29:36.902Z,10.70
2019-04-05T06:33:37.909Z,9.70
2019-04-05T06:37:38.840Z,10.50
2019-04-05T06:41:39.728Z,10.30
2019-04-05T06:45:40.917Z,10.30
2019-04-05T06:49:41.823Z,10.60
2019-04-05T06:53:42.702Z,10.20
2019-04-05T06:57:43.610Z,10.70
2019-04-05T07:01:45.984Z,11.00
2019-04-05T07:05:46.894Z,11.00
2019-04-05T07:09:47.762Z,10.50
2019-04-05T07:13:48.996Z,11.20
2019-04-05T07:17:49.984Z,10.80
2019-04-05T07:21:50.993Z,10.70
2019-04-05T07:25:51.860Z,10.50
2019-04-05T07:29:52.988Z,11.00
2019-04-05T07:33:56.115Z,10.80
2019-04-05T07:37:56.757Z,10.60
2019-04-05T07:41:57.752Z,10.30
2019-04-05T07:45:58.606Z,10.40
2019-04-05T07:49:59.582Z,11.00
2019-04-05T07:54:00.558Z,10.80
2019-04-05T07:58:01.575Z,10.70
2019-04-05T08:02:04.879Z,11.30
2019-04-05T08:06:05.988Z,11.20
2019-04-05T08:10:07.307Z,11.60
2019-04-05T08:14:09.090Z,10.90
2019-04-05T08:18:10.107Z,10.30
2019-04-05T08:22:11.113Z,10.70
2019-04-05T08:26:12.017Z,10.20
2019-04-05T08:30:13.250Z,11.10
2019-04-05T08:34:14.297Z,11.00
2019-04-05T08:38:15.301Z,11.00
2019-04-05T08:42:16.198Z,11.20
2019-04-05T08:46:17.179Z,11.00
2019-04-05T08:50:18.157Z,11.10
2019-04-05T08:54:31.524Z,11.00
2019-04-05T08:58:32.863Z,10.30
2019-04-05T09:02:24.682Z,11.00
2019-04-05T09:06:25.635Z,11.10
2019-04-05T09:10:26.571Z,10.60
2019-04-05T09:14:27.543Z,10.40
2019-04-05T09:18:28.487Z,11.00
2019-04-05T09:22:29.397Z,11.30
2019-04-05T09:26:30.367Z,11.50
2019-04-05T09:30:31.452Z,10.80
2019-04-05T09:34:32.321Z,10.60
2019-04-05T09:38:33.212Z,10.80
2019-04-05T09:42:34.196Z,10.50
2019-04-05T09:46:45.933Z,8.70
2019-04-05T09:50:38.074Z,8.80
2019-04-05T09:54:38.951Z,10.10
2019-04-05T09:58:39.870Z,9.20
2019-04-05T10:02:40.965Z,9.10
2019-04-05T10:06:41.846Z,10.00
2019-04-05T10:10:42.803Z,8.40
2019-04-05T10:14:43.704Z,8.80
2019-04-05T10:18:44.621Z,8.20
2019-04-05T10:22:45.595Z,8.90
2019-04-05T10:26:46.459Z,9.00
2019-04-05T10:30:47.362Z,9.80
2019-04-05T10:34:48.345Z,9.00
2019-04-05T10:38:49.221Z,8.20
2019-04-05T10:42:50.313Z,8.30
2019-04-05T10:46:51.197Z,7.50
2019-04-05T10:50:52.086Z,7.80
2019-04-05T10:54:52.975Z,7.50
2019-04-05T10:58:54.060Z,7.10
2019-04-05T11:02:55.059Z,7.40
2019-04-05T11:06:55.958Z,7.90
2019-04-05T11:10:57.085Z,7.90
2019-04-05T11:14:57.974Z,7.00
2019-04-05T11:19:01.919Z,7.40
2019-04-05T11:23:01.839Z,7.90
2019-04-05T11:27:03.030Z,7.30
2019-04-05T11:31:04.125Z,7.30
2019-04-05T11:35:06.009Z,7.90
2019-04-05T11:39:07.660Z,8.30
2019-04-05T11:43:08.643Z,8.30
2019-04-05T11:47:09.726Z,8.20
2019-04-05T11:51:10.930Z,7.70
2019-04-05T11:55:12.120Z,7.40
2019-04-05T11:59:15.552Z,8.20
2019-04-05T12:03:21.950Z,8.00
2019-04-05T12:07:30.877Z,7.80
2019-04-05T12:11:40.269Z,7.20
2019-04-05T12:15:41.682Z,8.40
2019-04-05T12:19:42.629Z,8.20
2019-04-05T12:23:43.736Z,8.10
2019-04-05T12:27:44.997Z,7.80
2019-04-05T12:31:46.422Z,7.50
2019-04-05T12:35:47.400Z,7.90
2019-04-05T12:39:48.354Z,7.30
2019-04-05T12:43:50.861Z,8.40
2019-04-05T12:47:52.039Z,8.40
2019-04-05T12:51:52.954Z,7.60
2019-04-05T12:55:56.888Z,7.90
2019-04-05T12:59:56.736Z,7.90
2019-04-05T13:03:58.785Z,7.40
2019-04-05T13:08:00.651Z,7.30
2019-04-05T13:12:01.778Z,7.70
2019-04-05T13:16:03.001Z,7.80
2019-04-05T13:20:07.209Z,8.20
2019-04-05T13:24:10.009Z,8.30
2019-04-05T13:28:13.647Z,9.30
2019-04-05T13:32:13.943Z,8.70
2019-04-05T13:36:14.940Z,9.00
2019-04-05T13:40:16.053Z,9.20
2019-04-05T13:44:17.042Z,9.10
2019-04-05T13:48:18.169Z,9.10
2019-04-05T13:52:19.081Z,9.40
2019-04-05T13:56:20.360Z,9.50
2019-04-05T14:00:21.447Z,9.70
2019-04-05T14:04:22.334Z,9.40
2019-04-05T14:08:23.526Z,8.80
2019-04-05T14:12:24.711Z,10.20
2019-04-05T14:16:25.705Z,9.60
2019-04-05T14:20:26.766Z,9.20
2019-04-05T14:24:27.766Z,9.80
2019-04-05T14:28:28.734Z,10.20
2019-04-05T14:32:29.691Z,10.70
2019-04-05T14:36:31.005Z,9.70
2019-04-05T14:40:33.150Z,8.90
2019-04-05T14:44:34.213Z,8.60
2019-04-05T14:48:35.085Z,9.90
2019-04-05T14:52:36.770Z,10.30
2019-04-05T14:56:37.695Z,9.60
2019-04-05T15:00:40.799Z,9.30
2019-04-05T15:04:41.939Z,10.20
2019-04-05T15:08:43.304Z,9.80
2019-04-05T15:12:44.208Z,9.50
2019-04-05T15:16:45.168Z,9.10
2019-04-05T15:20:46.538Z,8.80
2019-04-05T15:24:47.682Z,9.00
2019-04-05T15:28:48.689Z,9.70
2019-04-05T15:32:51.347Z,9.40
2019-04-05T15:36:52.636Z,8.70
2019-04-05T15:40:53.542Z,9.10
2019-04-05T15:44:54.637Z,9.60
2019-04-05T15:48:55.613Z,9.00
2019-04-05T15:52:56.630Z,9.20
2019-04-05T15:56:57.599Z,9.00
2019-04-05T16:00:58.635Z,9.00
2019-04-05T16:04:59.554Z,9.30
2019-04-05T16:09:00.734Z,9.30
2019-04-05T16:13:01.738Z,10.30
2019-04-05T16:17:03.377Z,10.60
2019-04-05T16:21:04.297Z,10.00
2019-04-05T16:25:06.784Z,10.10
2019-04-05T16:29:07.682Z,10.80
2019-04-05T16:33:08.605Z,11.50
2019-04-05T16:37:09.707Z,11.70
2019-04-05T16:41:10.773Z,10.80
2019-04-05T16:45:14.269Z,10.90
2019-04-05T16:49:15.310Z,10.00
2019-04-05T16:53:16.432Z,10.70
2019-04-05T16:57:17.322Z,10.70
2019-04-05T17:01:26.912Z,11.60
2019-04-05T17:05:21.259Z,10.90
2019-04-05T17:09:22.257Z,11.00
2019-04-05T17:13:24.895Z,10.80
2019-04-05T17:17:25.954Z,11.30
2019-04-05T17:21:26.990Z,11.30
2019-04-05T17:25:28.094Z,11.10
2019-04-05T17:29:29.118Z,11.40
2019-04-05T17:33:30.195Z,11.60
2019-04-05T17:37:31.318Z,10.80
2019-04-05T17:41:32.442Z,11.10
2019-04-05T17:45:33.343Z,11.70
2019-04-05T17:49:34.207Z,11.70
2019-04-05T17:53:35.362Z,12.20
2019-04-05T17:57:36.583Z,12.50
2019-04-05T18:01:38.888Z,12.30
2019-04-05T18:05:42.348Z,12.40
2019-04-05T18:09:44.060Z,12.20
2019-04-05T18:13:45.085Z,12.30
2019-04-05T18:17:46.542Z,12.40
2019-04-05T18:21:47.697Z,12.50
2019-04-05T18:25:48.651Z,12.40
2019-04-05T18:29:49.674Z,11.90
2019-04-05T18:33:50.809Z,12.30
2019-04-05T18:37:53.257Z,12.70
2019-04-05T18:41:54.122Z,13.30
2019-04-05T18:45:55.038Z,13.10
2019-04-05T18:50:02.828Z,13.20
2019-04-05T18:53:59.092Z,13.00
2019-04-05T18:58:00.111Z,13.30
2019-04-05T19:02:01.082Z,13.30
2019-04-05T19:06:02.183Z,13.20
2019-04-05T19:10:05.778Z,13.40
2019-04-05T19:14:07.158Z,13.50
2019-04-05T19:18:08.361Z,13.10
2019-04-05T19:22:09.350Z,13.20
2019-04-05T19:26:10.399Z,12.80
2019-04-05T19:50:26.267Z,12.40
2019-04-05T19:54:27.295Z,12.30
2019-04-05T19:58:28.186Z,12.90
2019-04-05T20:02:29.325Z,12.90
2019-04-05T20:06:30.253Z,12.20
2019-04-05T20:10:31.673Z,11.90
2019-04-05T20:14:32.770Z,10.40
2019-04-05T20:18:33.695Z,9.00
2019-04-05T20:22:34.798Z,8.80
2019-04-05T20:26:35.837Z,8.70
2019-04-05T20:30:36.783Z,8.50
2019-04-05T20:34:37.676Z,11.10
2019-04-05T20:38:44.370Z,12.30
2019-04-05T20:42:42.979Z,13.00
2019-04-05T20:46:43.856Z,12.60
2019-04-05T20:50:44.861Z,12.90
2019-04-05T20:54:45.872Z,13.20
2019-04-05T20:58:46.983Z,12.50
2019-04-05T21:02:47.962Z,12.70
2019-04-05T21:06:48.839Z,13.10
2019-04-05T21:10:50.161Z,13.30
2019-04-05T21:14:51.146Z,13.00
2019-04-05T21:18:52.167Z,13.50
2019-04-05T21:22:53.073Z,13.60
2019-04-05T21:26:54.052Z,13.60
2019-04-05T21:30:55.042Z,13.90
2019-04-05T21:34:56.033Z,13.90
2019-04-05T21:38:56.939Z,14.00
2019-04-05T21:42:57.850Z,13.40
2019-04-05T21:46:58.804Z,12.20
2019-04-05T21:50:59.718Z,12.70
2019-04-05T21:55:00.645Z,13.20
2019-04-05T21:59:01.734Z,12.40
2019-04-05T22:03:02.796Z,12.10
2019-04-05T22:07:03.940Z,13.00
2019-04-05T22:11:06.566Z,13.50
2019-04-05T22:15:07.662Z,13.80
2019-04-05T22:19:08.545Z,14.00
2019-04-05T22:23:09.594Z,14.00
2019-04-05T22:27:10.830Z,13.90
2019-04-05T22:31:11.724Z,14.00
2019-04-05T22:35:12.585Z,13.90
2019-04-05T22:39:13.477Z,13.90
2019-04-05T22:43:14.370Z,14.10
2019-04-05T22:47:15.247Z,13.80
2019-04-05T22:51:16.130Z,13.90
2019-04-05T22:55:17.111Z,13.90
2019-04-05T22:59:18.094Z,13.80
2019-04-05T23:03:18.970Z,13.80
2019-04-05T23:07:19.853Z,13.00
2019-04-05T23:11:20.919Z,13.00
2019-04-05T23:15:21.924Z,12.90
2019-04-05T23:19:22.820Z,12.20
2019-04-05T23:23:23.703Z,12.50
2019-04-05T23:27:24.575Z,12.70
2019-04-05T23:31:25.455Z,10.50
2019-04-05T23:35:26.542Z,10.90
2019-04-05T23:39:27.491Z,11.10
2019-04-05T23:43:28.539Z,10.90
2019-04-05T23:47:29.389Z,11.30
2019-04-05T23:51:30.283Z,11.00
2019-04-05T23:55:33.425Z,11.90
2019-04-05T23:59:34.136Z,12.60
